Time;durP1;ratioP1;P1;durP2;ratioP2;P2;SDS_P1;SDS_P2;PMS_P1;PMS_P2;Temp;Humidity;BMP_temperature;BMP_pressure;BME280_temperature;BME280_humidity;BME280_pressure;Samples;Min_cycle;Max_cycle;Signal;HPM_P1;HPM_P2
2023/08/18 00:01:20;;;;;;;0.00;0.00;;;;;;;18.32;100.00;101821.28;5053360;28;20438;-45
2023/08/18 00:03:45;;;;;;;0.00;0.00;;;;;;;18.30;100.00;101826.09;5052916;28;20053;-48
2023/08/18 00:06:11;;;;;;;0.00;0.00;;;;;;;18.32;100.00;101821.28;5052816;28;20083;-47
2023/08/18 00:08:37;;;;;;;0.00;0.00;;;;;;;18.31;100.00;101825.06;5052910;28;20028;-49
2023/08/18 00:11:03;;;;;;;0.00;0.00;;;;;;;18.36;100.00;101819.84;5052860;28;20100;-48
2023/08/18 00:13:28;;;;;;;0.00;0.00;;;;;;;18.38;100.00;101821.31;5052628;28;20021;-48
2023/08/18 00:15:53;;;;;;;0.00;0.00;;;;;;;18.37;100.00;101818.78;5052732;28;20032;-47
2023/08/18 00:18:19;;;;;;;0.00;0.00;;;;;;;18.39;100.00;101813.97;5052674;28;20029;-48
2023/08/18 00:20:44;;;;;;;0.00;0.00;;;;;;;18.40;100.00;101815.63;5052707;28;20104;-48
2023/08/18 00:23:09;;;;;;;0.00;0.00;;;;;;;18.42;100.00;101816.25;5034325;28;20108;-48
2023/08/18 00:25:35;;;;;;;0.00;0.00;;;;;;;18.47;100.00;101807.47;5052679;28;20025;-45
2023/08/18 00:28:00;;;;;;;0.00;0.00;;;;;;;18.45;100.00;101813.09;5034822;28;20108;-47
2023/08/18 00:30:25;;;;;;;0.00;0.00;;;;;;;18.47;100.00;101808.28;5053191;28;20091;-45
2023/08/18 00:32:51;;;;;;;0.00;0.00;;;;;;;18.47;100.00;101808.28;5052668;28;20060;-49
2023/08/18 00:35:17;;;;;;;0.00;0.00;;;;;;;18.49;100.00;101805.38;5051261;28;20120;-45
2023/08/18 00:37:43;;;;;;;0.00;0.00;;;;;;;18.46;100.00;101803.91;5052338;28;20041;-45
2023/08/18 00:40:10;;;;;;;0.00;0.00;;;;;;;18.46;100.00;101800.31;5052668;28;20029;-47
2023/08/18 00:42:35;;;;;;;0.00;0.00;;;;;;;18.48;100.00;101809.13;5052470;28;20094;-47
2023/08/18 00:45:00;;;;;;;0.00;0.00;;;;;;;18.46;100.00;101801.16;5053146;28;20056;-47
2023/08/18 00:47:26;;;;;;;0.00;0.00;;;;;;;18.48;100.00;101799.03;5052971;28;20024;-45
2023/08/18 00:49:52;;;;;;;0.00;0.00;;;;;;;18.45;100.00;101796.75;5052242;28;20406;-50
2023/08/18 00:52:18;;;;;;;0.00;0.00;;;;;;;18.43;100.00;101801.56;5052266;28;20108;-47
2023/08/18 00:54:44;;;;;;;0.00;0.00;;;;;;;18.41;100.00;101798.25;5034347;28;20463;-46
2023/08/18 00:57:10;;;;;;;0.00;0.00;;;;;;;18.40;100.00;101796.53;5052087;28;20029;-49
2023/08/18 00:59:36;;;;;;;0.00;0.00;;;;;;;18.42;100.00;101798.00;5034106;28;20403;-49
2023/08/18 01:02:02;;;;;;;0.00;0.00;;;;;;;18.43;100.00;101796.13;5051992;28;20031;-48
2023/08/18 01:04:28;;;;;;;0.00;0.00;;;;;;;18.39;100.00;101795.72;5033960;28;20082;-48
2023/08/18 01:06:54;;;;;;;0.00;0.00;;;;;;;18.43;100.00;101790.66;5051992;28;20469;-49
2023/08/18 01:09:19;;;;;;;0.00;0.00;;;;;;;18.40;100.00;101788.38;5052000;28;20017;-47
2023/08/18 01:11:50;;;;;;;0.00;0.00;;;;;;;18.37;100.00;101788.78;5051601;28;20375;-50
2023/08/18 01:14:25;;;;;;;0.00;0.00;;;;;;;18.34;100.00;101791.94;5033833;28;20544;-46
2023/08/18 01:17:03;;;;;;;0.00;0.00;;;;;;;18.32;100.00;101794.88;5033872;28;20024;-47
2023/08/18 01:19:28;;;;;;;0.00;0.00;;;;;;;18.25;100.00;101794.06;5033786;28;20035;-48
2023/08/18 01:21:57;;;;;;;0.00;0.00;;;;;;;18.31;100.00;101786.91;5033553;28;20017;-48
2023/08/18 01:24:26;;;;;;;0.00;0.00;;;;;;;18.30;100.00;101782.50;5051371;28;20025;-48
2023/08/18 01:26:52;;;;;;;0.00;0.00;;;;;;;18.34;100.00;101786.50;5051535;28;20037;-49
2023/08/18 01:29:20;;;;;;;0.00;0.00;;;;;;;18.33;100.00;101782.94;5051532;28;20056;-46
2023/08/18 01:31:45;;;;;;;;;;;;;;;18.34;100.00;101779.16;5051722;28;20029;-48
2023/08/18 01:34:12;;;;;;;0.00;0.00;;;;;;;18.33;100.00;101779.38;5051414;28;19916;-47
2023/08/18 01:36:41;;;;;;;0.00;0.00;;;;;;;18.32;100.00;101777.69;5051112;28;20036;-48
2023/08/18 01:39:07;;;;;;;0.00;0.00;;;;;;;18.31;100.00;101768.66;5051297;28;20039;-46
2023/08/18 01:41:33;;;;;;;0.00;0.00;;;;;;;18.30;100.00;101768.88;5033550;28;20210;-45
2023/08/18 01:44:01;;;;;;;0.00;0.00;;;;;;;18.33;100.00;101771.19;5033442;28;20083;-44
2023/08/18 01:46:27;;;;;;;0.00;0.00;;;;;;;18.33;100.00;101768.47;5051303;28;20041;-47
2023/08/18 01:48:52;;;;;;;0.00;0.00;;;;;;;18.32;100.00;101769.50;5050930;28;20415;-45
2023/08/18 01:51:17;;;;;;;0.00;0.00;;;;;;;18.29;100.00;101764.47;5033456;28;20471;-47
2023/08/18 01:53:43;;;;;;;0.00;0.00;;;;;;;18.32;100.00;101766.78;5032859;28;20029;-48
2023/08/18 01:56:08;;;;;;;0.00;0.00;;;;;;;18.28;100.00;101760.09;5051270;28;20031;-47
2023/08/18 01:58:34;;;;;;;0.00;0.00;;;;;;;18.27;100.00;101759.22;5049910;28;20025;-49
2023/08/18 02:00:59;;;;;;;0.00;0.00;;;;;;;18.23;100.00;101759.88;5050788;28;20112;-46
2023/08/18 02:03:28;;;;;;;0.00;0.00;;;;;;;18.19;100.00;101751.28;5050779;28;20424;-49
2023/08/18 02:05:54;;;;;;;0.00;0.00;;;;;;;18.12;100.00;101745.84;5050722;28;20021;-50
2023/08/18 02:08:20;;;;;;;0.00;0.00;;;;;;;18.07;100.00;101745.63;5051118;28;20025;-47
2023/08/18 02:10:46;;;;;;;0.00;0.00;;;;;;;17.98;100.00;101739.56;5051630;28;20025;-47
2023/08/18 02:13:11;;;;;;;0.00;0.00;;;;;;;17.91;100.00;101743.34;5051655;28;20074;-45
2023/08/18 02:15:36;;;;;;;0.00;0.00;;;;;;;17.88;100.00;101747.31;5033558;28;20040;-47
2023/08/18 02:18:02;;;;;;;0.00;0.00;;;;;;;17.82;100.00;101747.28;5051102;28;20065;-46
2023/08/18 02:20:27;;;;;;;0.00;0.00;;;;;;;17.78;100.00;101747.69;5050764;28;20388;-47
2023/08/18 02:22:53;;;;;;;0.00;0.00;;;;;;;17.76;100.00;101744.31;5050701;28;20115;-46
2023/08/18 02:25:18;;;;;;;0.00;0.00;;;;;;;17.71;100.00;101748.72;5050524;28;20024;-45
2023/08/18 02:27:43;;;;;;;0.00;0.00;;;;;;;17.65;100.00;101744.94;5050662;28;20029;-48
2023/08/18 02:30:09;;;;;;;0.00;0.00;;;;;;;17.65;100.00;101755.81;5050348;28;20017;-48
2023/08/18 02:32:35;;;;;;;0.00;0.00;;;;;;;17.60;100.00;101752.06;5050536;28;20429;-47
2023/08/18 02:35:01;;;;;;;0.00;0.00;;;;;;;17.55;100.00;101761.66;5050322;28;20116;-46
2023/08/18 02:37:27;;;;;;;0.00;0.00;;;;;;;17.57;100.00;101761.47;5050838;28;20108;-48
2023/08/18 02:39:52;;;;;;;0.00;0.00;;;;;;;17.54;100.00;101751.00;5050332;28;20128;-47
2023/08/18 02:42:18;;;;;;;0.00;0.00;;;;;;;17.51;100.00;101748.69;5032602;28;20029;-46
2023/08/18 02:44:43;;;;;;;0.00;0.00;;;;;;;17.55;100.00;101744.50;5050724;28;20041;-47
2023/08/18 02:47:09;;;;;;;0.00;0.00;;;;;;;17.53;100.00;101747.41;5050929;28;20029;-49
2023/08/18 02:49:35;;;;;;;0.00;0.00;;;;;;;17.49;100.00;101740.72;5051076;28;20028;-46
2023/08/18 02:52:00;;;;;;;0.00;0.00;;;;;;;17.49;100.00;101738.00;5050880;28;20378;-44
2023/08/18 02:54:26;;;;;;;0.00;0.00;;;;;;;17.46;100.00;101734.88;5051082;28;20061;-47
2023/08/18 02:56:51;;;;;;;0.00;0.00;;;;;;;17.43;100.00;101727.09;5050742;28;20061;-45
2023/08/18 02:59:17;;;;;;;0.00;0.00;;;;;;;17.34;100.00;101727.28;5050788;28;20048;-47
2023/08/18 03:01:43;;;;;;;0.00;0.00;;;;;;;17.38;100.00;101729.56;5050940;28;20539;-46
2023/08/18 03:04:08;;;;;;;0.00;0.00;;;;;;;17.34;100.00;101724.56;5051970;28;20115;-46
2023/08/18 03:06:33;;;;;;;0.00;0.00;;;;;;;17.31;100.00;101714.09;5054933;28;20108;-45
2023/08/18 03:08:59;;;;;;;0.00;0.00;;;;;;;17.29;100.00;101715.34;5054595;28;20498;-48
2023/08/18 03:11:24;;;;;;;0.00;0.00;;;;;;;17.26;100.00;101705.69;5054270;28;20021;-47
2023/08/18 03:13:51;;;;;;;0.00;0.00;;;;;;;17.20;100.00;101703.81;5054441;28;20037;-48
2023/08/18 03:16:17;;;;;;;0.00;0.00;;;;;;;17.15;100.00;101705.47;5053900;28;20094;-49
2023/08/18 03:18:43;;;;;;;0.00;0.00;;;;;;;17.10;100.00;101701.47;5053773;28;20111;-47
2023/08/18 03:21:08;;;;;;;0.00;0.00;;;;;;;17.06;100.00;101702.06;5053816;28;20052;-46
2023/08/18 03:23:34;;;;;;;0.00;0.00;;;;;;;17.00;100.00;101694.72;5053908;28;20048;-46
2023/08/18 03:26:00;;;;;;;0.00;0.00;;;;;;;16.92;100.00;101705.78;5053784;28;20025;-45
2023/08/18 03:28:26;;;;;;;0.00;0.00;;;;;;;16.85;100.00;101712.06;5053950;28;20032;-46
2023/08/18 03:30:51;;;;;;;0.00;0.00;;;;;;;16.82;100.00;101717.88;5053497;28;20033;-47
2023/08/18 03:33:17;;;;;;;0.00;0.00;;;;;;;16.80;100.00;101733.56;5053492;28;20029;-48
2023/08/18 03:35:48;;;;;;;0.00;0.00;;;;;;;16.80;100.00;101736.28;5053358;28;20112;-48
2023/08/18 03:38:13;;;;;;;0.00;0.00;;;;;;;16.82;100.00;101734.19;5053616;28;20051;-45
2023/08/18 03:40:39;;;;;;;0.00;0.00;;;;;;;16.83;100.00;101741.31;5053274;28;20428;-47
2023/08/18 03:43:04;;;;;;;0.00;0.00;;;;;;;16.85;100.00;101731.09;5053599;28;20032;-50
2023/08/18 03:45:30;;;;;;;0.00;0.00;;;;;;;16.91;100.00;101725.88;5053474;28;20024;-49
2023/08/18 03:47:55;;;;;;;0.00;0.00;;;;;;;16.94;100.00;101725.47;5053275;28;20028;-47
2023/08/18 03:50:21;;;;;;;0.00;0.00;;;;;;;16.89;100.00;101728.78;5053177;28;20041;-48
2023/08/18 03:52:46;;;;;;;0.00;0.00;;;;;;;16.86;100.00;101730.03;5053848;28;20027;-48
2023/08/18 03:55:13;;;;;;;0.00;0.00;;;;;;;16.85;100.00;101735.66;5053096;28;20365;-47
2023/08/18 03:57:38;;;;;;;0.00;0.00;;;;;;;16.85;100.00;101733.81;5053389;28;20029;-47
2023/08/18 04:00:04;;;;;;;0.00;0.00;;;;;;;16.91;100.00;101720.44;5053281;28;20045;-47
2023/08/18 04:02:29;;;;;;;0.00;0.00;;;;;;;16.88;100.00;101733.41;5053287;28;20021;-45
2023/08/18 04:04:54;;;;;;;0.00;0.00;;;;;;;16.88;100.00;101727.97;5053674;28;20033;-47
2023/08/18 04:07:20;;;;;;;0.00;0.00;;;;;;;16.83;100.00;101725.00;5053443;28;20032;-46
2023/08/18 04:09:45;;;;;;;0.00;0.00;;;;;;;16.88;100.00;101719.81;5053338;28;20108;-45
2023/08/18 04:12:11;;;;;;;0.00;0.00;;;;;;;16.86;100.00;101729.19;5035234;28;20036;-46
2023/08/18 04:14:36;;;;;;;0.00;0.00;;;;;;;16.84;100.00;101736.72;5053296;28;20079;-47
2023/08/18 04:17:02;;;;;;;0.00;0.00;;;;;;;16.86;100.00;101732.75;5052874;28;20059;-48
2023/08/18 04:19:27;;;;;;;0.00;0.00;;;;;;;16.84;100.00;101736.72;5055179;28;20064;-45
2023/08/18 04:21:52;;;;;;;0.00;0.00;;;;;;;16.90;100.00;101744.06;5055717;28;20458;-45
2023/08/18 04:24:18;;;;;;;0.00;0.00;;;;;;;16.88;100.00;101738.84;5054956;28;20024;-46
2023/08/18 04:26:43;;;;;;;0.00;0.00;;;;;;;16.93;100.00;101735.50;5035389;28;20498;-47
2023/08/18 04:29:09;;;;;;;0.00;0.00;;;;;;;17.00;100.00;101732.81;5053016;28;20029;-48
2023/08/18 04:31:34;;;;;;;0.00;0.00;;;;;;;17.03;100.00;101732.41;5052854;28;20534;-46
2023/08/18 04:34:00;;;;;;;0.00;0.00;;;;;;;17.03;100.00;101732.41;5052823;28;20100;-47
2023/08/18 04:36:25;;;;;;;0.00;0.00;;;;;;;16.99;100.00;101731.16;5052627;28;20104;-47
2023/08/18 04:38:50;;;;;;;0.00;0.00;;;;;;;17.03;100.00;101735.13;5052342;28;20120;-46
2023/08/18 04:41:16;;;;;;;0.00;0.00;;;;;;;17.00;100.00;101735.53;5052383;28;20036;-47
2023/08/18 04:43:41;;;;;;;0.00;0.00;;;;;;;16.98;100.00;101734.88;5033733;28;20050;-46
2023/08/18 04:46:07;;;;;;;0.00;0.00;;;;;;;17.01;100.00;101731.75;5034575;28;20036;-50
2023/08/18 04:48:32;;;;;;;0.00;0.00;;;;;;;17.02;100.00;101734.28;5052733;28;20029;-48
2023/08/18 04:50:58;;;;;;;0.00;0.00;;;;;;;16.97;100.00;101735.94;5034589;28;20064;-45
2023/08/18 04:53:23;;;;;;;0.00;0.00;;;;;;;16.99;100.00;101740.13;5052273;28;20057;-47
2023/08/18 04:55:48;;;;;;;0.00;0.00;;;;;;;16.97;100.00;101733.22;5052669;28;20373;-47
2023/08/18 04:58:15;;;;;;;0.00;0.00;;;;;;;16.89;100.00;101735.06;5052231;28;20057;-47
2023/08/18 05:00:41;;;;;;;0.00;0.00;;;;;;;16.91;100.00;101737.59;5051960;28;20119;-47
2023/08/18 05:03:06;;;;;;;0.00;0.00;;;;;;;16.85;100.00;101733.81;5052112;28;20033;-45
2023/08/18 05:05:38;;;;;;;0.00;0.00;;;;;;;16.83;100.00;101741.31;5052315;28;20029;-47
2023/08/18 05:08:04;;;;;;;0.00;0.00;;;;;;;16.82;100.00;101736.06;5034149;28;20048;-46
2023/08/18 05:10:29;;;;;;;0.00;0.00;;;;;;;16.83;100.00;101744.03;5052197;28;20021;-47
2023/08/18 05:12:55;;;;;;;0.00;0.00;;;;;;;16.82;100.00;101744.22;5052024;28;20033;-44
2023/08/18 05:15:21;;;;;;;0.00;0.00;;;;;;;16.77;100.00;101739.41;5051901;28;20079;-46
2023/08/18 05:17:47;;;;;;;0.00;0.00;;;;;;;16.73;100.00;101740.81;5051843;28;20021;-47
2023/08/18 05:20:12;;;;;;;0.00;0.00;;;;;;;16.71;100.00;101740.16;5051940;28;20029;-48
2023/08/18 05:22:37;;;;;;;0.00;0.00;;;;;;;16.66;100.00;101729.88;5051885;28;20486;-46
2023/08/18 05:25:03;;;;;;;0.00;0.00;;;;;;;16.67;100.00;101737.03;5051673;28;20370;-47
2023/08/18 05:27:29;;;;;;;0.00;0.00;;;;;;;16.66;100.00;101739.94;5050924;28;20387;-46
2023/08/18 05:29:56;;;;;;;0.00;0.00;;;;;;;16.72;100.00;101728.28;5051513;28;20032;-46
2023/08/18 05:32:21;;;;;;;0.00;0.00;;;;;;;16.77;100.00;101739.41;5052008;28;20033;-47
2023/08/18 05:34:47;;;;;;;0.00;0.00;;;;;;;16.76;100.00;101737.69;5051402;28;20044;-46
2023/08/18 05:37:12;;;;;;;0.00;0.00;;;;;;;16.80;100.00;101732.75;5051799;28;20044;-45
2023/08/18 05:39:37;;;;;;;0.00;0.00;;;;;;;16.85;100.00;101731.09;5052252;28;20017;-45
2023/08/18 05:42:03;;;;;;;0.00;0.00;;;;;;;16.89;100.00;101717.91;5051549;28;20116;-47
2023/08/18 05:44:29;;;;;;;0.00;0.00;;;;;;;16.86;100.00;101719.16;5051134;28;20107;-47
2023/08/18 05:46:54;;;;;;;0.00;0.00;;;;;;;16.88;100.00;101718.97;5050827;28;20029;-49
2023/08/18 05:49:20;;;;;;;0.00;0.00;;;;;;;16.94;100.00;101725.47;5051043;28;20679;-48
2023/08/18 05:51:45;;;;;;;0.00;0.00;;;;;;;16.94;100.00;101720.88;5051071;28;20037;-50
2023/08/18 05:54:10;;;;;;;0.00;0.00;;;;;;;16.96;100.00;101721.50;5052503;28;20029;-48
2023/08/18 05:56:36;;;;;;;0.00;0.00;;;;;;;17.04;100.00;101721.34;5069900;28;20024;-49
2023/08/18 05:59:04;;;;;;;0.00;0.00;;;;;;;17.02;100.00;101715.25;5070504;28;20406;-47
2023/08/18 06:01:29;;;;;;;0.00;0.00;;;;;;;17.06;100.00;101708.38;5070091;28;20051;-47
2023/08/18 06:03:55;;;;;;;0.00;0.00;;;;;;;17.07;100.00;101707.31;5069851;28;20503;-47
2023/08/18 06:06:20;;;;;;;0.00;0.00;;;;;;;17.05;100.00;101711.28;5071550;28;20024;-47
2023/08/18 06:08:45;;;;;;;0.00;0.00;;;;;;;17.05;100.00;101706.69;5071287;28;20087;-48
2023/08/18 06:11:11;;;;;;;0.00;0.00;;;;;;;17.03;100.00;101706.03;5071046;28;20051;-47
2023/08/18 06:13:37;;;;;;;0.00;0.00;;;;;;;17.08;100.00;101697.28;5070880;28;20082;-48
2023/08/18 06:16:03;;;;;;;0.00;0.00;;;;;;;17.12;100.00;101706.72;5071126;28;20043;-46
2023/08/18 06:18:29;;;;;;;0.00;0.00;;;;;;;17.21;100.00;101705.47;5070658;28;20405;-48
2023/08/18 06:20:54;;;;;;;0.00;0.00;;;;;;;17.29;100.00;101702.56;5069458;28;20036;-46
2023/08/18 06:23:20;;;;;;;0.00;0.00;;;;;;;17.35;100.00;101692.72;5070645;28;20436;-46
2023/08/18 06:25:45;;;;;;;0.00;0.00;;;;;;;17.37;100.00;101681.66;5070622;28;20036;-47
2023/08/18 06:28:10;;;;;;;0.00;0.00;;;;;;;17.43;100.00;101697.16;5070553;28;20681;-50
2023/08/18 06:30:36;;;;;;;0.00;0.00;;;;;;;17.48;100.00;101700.94;5070605;28;20032;-46
2023/08/18 06:33:01;;;;;;;0.00;0.00;;;;;;;17.50;100.00;101698.84;5070647;28;20081;-47
2023/08/18 06:35:26;;;;;;;0.00;0.00;;;;;;;17.58;100.00;101705.13;5070033;28;20099;-46
2023/08/18 06:37:52;;;;;;;0.00;0.00;;;;;;;17.56;100.00;101702.59;5070842;28;20372;-48
2023/08/18 06:40:17;;;;;;;0.00;0.00;;;;;;;17.55;100.00;101698.22;5073873;28;20024;-46
2023/08/18 06:42:42;;;;;;;0.00;0.00;;;;;;;17.57;100.00;101698.88;5074726;28;20088;-47
2023/08/18 06:45:08;;;;;;;0.00;0.00;;;;;;;17.57;100.00;101698.88;5074614;28;20024;-46
2023/08/18 06:47:33;;;;;;;0.00;0.00;;;;;;;17.67;100.00;101693.84;5074910;28;20036;-49
2023/08/18 06:50:00;;;;;;;0.00;0.00;;;;;;;17.64;100.00;101704.28;5074608;28;20036;-47
2023/08/18 06:52:26;;;;;;;0.00;0.00;;;;;;;17.67;100.00;101707.47;5074474;28;20470;-47
2023/08/18 06:54:51;;;;;;;0.00;0.00;;;;;;;17.69;100.00;101697.22;5074431;28;20051;-47
2023/08/18 06:57:16;;;;;;;0.00;0.00;;;;;;;17.78;100.00;101701.38;5072907;28;20467;-47
2023/08/18 06:59:42;;;;;;;0.00;0.00;;;;;;;17.83;100.00;101698.06;5074012;28;20056;-47
2023/08/18 07:02:07;;;;;;;0.00;0.00;;;;;;;17.91;100.00;101688.88;5075568;28;20112;-46
2023/08/18 07:04:32;;;;;;;0.00;0.00;;;;;;;17.94;100.00;101683.00;5074290;28;20107;-48
2023/08/18 07:06:58;;;;;;;0.00;0.00;;;;;;;17.93;100.00;101690.31;5074526;28;20035;-45
2023/08/18 07:09:23;;;;;;;0.00;0.00;;;;;;;17.97;100.00;101698.91;5074049;28;20032;-49
2023/08/18 07:11:49;;;;;;;0.00;0.00;;;;;;;17.99;100.00;101697.66;5074415;28;20360;-48
2023/08/18 07:14:14;;;;;;;0.00;0.00;;;;;;;18.11;100.00;101697.84;5073951;28;20033;-46
2023/08/18 07:16:39;;;;;;;0.00;0.00;;;;;;;18.27;100.00;101690.28;5074269;28;20103;-46
2023/08/18 07:19:05;;;;;;;0.10;0.00;;;;;;;18.39;100.00;101683.13;5073848;28;20052;-48
2023/08/18 07:21:30;;;;;;;0.47;0.00;;;;;;;18.55;100.00;101679.94;5074200;28;20089;-49
2023/08/18 07:23:55;;;;;;;0.00;0.00;;;;;;;18.68;100.00;101678.22;5073861;28;20390;-46
2023/08/18 07:26:21;;;;;;;0.00;0.00;;;;;;;18.67;100.00;101666.50;5073948;28;20028;-45
2023/08/18 07:28:46;;;;;;;0.00;0.00;;;;;;;18.62;100.00;101675.31;5073981;28;20078;-49
2023/08/18 07:31:11;;;;;;;0.00;0.00;;;;;;;18.68;100.00;101670.06;5073988;28;20032;-47
2023/08/18 07:33:37;;;;;;;0.00;0.00;;;;;;;18.82;100.00;101671.69;5074237;28;20472;-47
2023/08/18 07:36:03;;;;;;;0.00;0.00;;;;;;;18.91;100.00;101654.03;5073340;28;20028;-47
2023/08/18 07:38:33;;;;;;;0.00;0.00;;;;;;;19.08;100.00;101659.81;5073821;28;20024;-47
2023/08/18 07:40:58;;;;;;;0.00;0.00;;;;;;;19.49;100.00;101653.88;5073941;28;20430;-47
2023/08/18 07:43:23;;;;;;;0.00;0.00;;;;;;;20.04;100.00;101639.56;5072934;28;20021;-50
2023/08/18 07:45:49;;;;;;;0.00;0.00;;;;;;;20.51;100.00;101628.97;5073186;28;20432;-46
2023/08/18 07:48:14;;;;;;;0.00;0.00;;;;;;;20.98;100.00;101617.41;5055510;28;20056;-44
2023/08/18 07:50:40;;;;;;;0.00;0.00;;;;;;;21.90;100.00;101603.31;5072516;28;20416;-47
2023/08/18 07:53:06;;;;;;;0.00;0.00;;;;;;;22.83;100.00;101590.50;5073688;28;20075;-48
2023/08/18 07:55:31;;;;;;;0.00;0.00;;;;;;;23.73;100.00;101594.28;5073358;28;20048;-45
2023/08/18 07:57:57;;;;;;;0.00;0.00;;;;;;;24.52;100.00;101584.91;5073198;28;20032;-49
2023/08/18 08:00:22;;;;;;;0.00;0.00;;;;;;;24.96;100.00;101593.06;5073707;28;20080;-46
2023/08/18 08:02:48;;;;;;;0.00;0.00;;;;;;;25.24;100.00;101593.94;5072543;28;20024;-47
2023/08/18 08:05:17;;;;;;;0.00;0.00;;;;;;;26.41;100.00;101594.72;5073188;28;20475;-46
2023/08/18 08:07:42;;;;;;;0.00;0.00;;;;;;;27.63;100.00;101607.09;5073190;28;20082;-46
2023/08/18 08:10:08;;;;;;;0.00;0.00;;;;;;;27.99;100.00;101612.63;5072817;28;20032;-46
2023/08/18 08:12:36;;;;;;;0.00;0.00;;;;;;;27.18;100.00;101613.47;5073038;28;20096;-48
2023/08/18 08:15:03;;;;;;;0.00;0.00;;;;;;;26.64;100.00;101609.16;5072920;28;20052;-47
2023/08/18 08:17:32;;;;;;;0.00;0.00;;;;;;;25.75;100.00;101602.59;5073187;28;20028;-48
2023/08/18 08:20:00;;;;;;;0.00;0.00;;;;;;;25.37;100.00;101607.28;5072793;28;20067;-48
2023/08/18 08:22:25;;;;;;;0.00;0.00;;;;;;;25.40;100.00;101599.28;5073092;28;20471;-48
2023/08/18 08:24:54;;;;;;;0.00;0.00;;;;;;;25.31;100.00;101597.31;5073613;28;20078;-47
2023/08/18 08:27:19;;;;;;;0.00;0.00;;;;;;;25.81;100.00;101596.03;5073154;28;20372;-49
2023/08/18 08:29:45;;;;;;;0.00;0.00;;;;;;;24.88;100.00;101607.31;5073176;28;20078;-45
2023/08/18 08:32:10;;;;;;;0.00;0.00;;;;;;;24.33;100.00;101603.66;5073511;28;20055;-45
2023/08/18 08:34:38;;;;;;;0.00;0.00;;;;;;;24.06;100.00;101609.03;5073969;28;20032;-47
2023/08/18 08:37:03;;;;;;;0.00;0.00;;;;;;;24.22;100.00;101619.16;5072839;28;20028;-47
2023/08/18 08:39:28;;;;;;;0.00;0.00;;;;;;;24.39;100.00;101615.53;5071624;28;20028;-45
2023/08/18 08:41:54;;;;;;;0.00;0.00;;;;;;;24.62;100.00;101615.31;5072724;28;20510;-45
2023/08/18 08:44:19;;;;;;;0.10;0.00;;;;;;;24.45;100.00;101614.53;5072827;28;20039;-46
2023/08/18 08:46:45;;;;;;;0.00;0.00;;;;;;;24.52;100.00;101617.94;5072489;28;20028;-47
2023/08/18 08:49:11;;;;;;;0.00;0.00;;;;;;;24.61;100.00;101621.88;5072219;28;20024;-48
2023/08/18 08:51:37;;;;;;;0.00;0.00;;;;;;;24.49;100.00;101619.28;5071966;28;20036;-47
2023/08/18 08:54:04;;;;;;;0.00;0.00;;;;;;;25.03;100.00;101624.00;5072460;28;20046;-48
2023/08/18 08:56:35;;;;;;;0.00;0.00;;;;;;;25.29;100.00;101621.53;5071561;28;20085;-46
2023/08/18 08:59:00;;;;;;;0.00;0.00;;;;;;;26.31;100.00;101615.94;5070981;28;20423;-47
2023/08/18 09:01:26;;;;;;;0.00;0.00;;;;;;;27.00;100.00;101623.06;5072242;28;20029;-47
2023/08/18 09:03:51;;;;;;;0.00;0.00;;;;;;;27.08;100.00;101617.00;5072344;28;20040;-51
2023/08/18 09:06:17;;;;;;;0.00;0.00;;;;;;;26.76;100.00;101620.81;5070755;28;20042;-47
2023/08/18 09:08:43;;;;;;;0.00;0.00;;;;;;;26.37;100.00;101623.94;5071974;28;20053;-47
2023/08/18 09:11:09;;;;;;;0.00;0.00;;;;;;;25.62;100.00;101621.25;5071824;28;20078;-45
2023/08/18 09:13:35;;;;;;;0.00;0.00;;;;;;;25.02;100.00;101621.53;5071524;28;20062;-47
2023/08/18 09:16:03;;;;;;;0.00;0.00;;;;;;;24.57;100.00;101608.91;5071681;28;20029;-47
2023/08/18 09:18:32;;;;;;;0.00;0.00;;;;;;;24.36;100.00;101607.81;5071576;28;20028;-47
2023/08/18 09:20:57;;;;;;;0.00;0.00;;;;;;;24.11;100.00;101606.34;5070133;28;20028;-48
2023/08/18 09:23:25;;;;;;;0.00;0.00;;;;;;;24.07;100.00;101608.78;5071486;28;20066;-48
2023/08/18 09:25:51;;;;;;;0.00;0.00;;;;;;;24.43;100.00;101600.16;5071575;28;20029;-46
2023/08/18 09:28:17;;;;;;;0.08;0.00;;;;;;;24.81;100.00;101588.25;5071456;28;20078;-47
2023/08/18 09:30:43;;;;;;;0.00;0.00;;;;;;;25.92;100.00;101586.75;5071225;28;20032;-48
2023/08/18 09:33:08;;;;;;;0.00;0.00;;;;;;;26.41;100.00;101596.63;5071367;28;20033;-47
2023/08/18 09:35:34;;;;;;;0.00;0.00;;;;;;;26.54;100.00;101600.84;5071174;28;20035;-47
2023/08/18 09:38:00;;;;;;;0.00;0.00;;;;;;;26.46;100.00;101596.66;5071499;28;20035;-49
2023/08/18 09:40:26;;;;;;;0.00;0.00;;;;;;;26.13;100.00;101603.41;5070629;28;20029;-45
2023/08/18 09:42:51;;;;;;;0.00;0.00;;;;;;;25.68;100.00;101597.31;5070443;28;20043;-46
2023/08/18 09:45:20;;;;;;;0.00;0.00;;;;;;;25.27;100.00;101604.41;5071745;28;20078;-46
2023/08/18 09:47:48;;;;;;;0.00;0.00;;;;;;;24.98;100.00;101599.16;5071218;28;20044;-47
2023/08/18 09:50:14;;;;;;;0.00;0.00;;;;;;;24.59;100.00;101598.47;5069856;28;20024;-46
2023/08/18 09:52:41;;;;;;;0.00;0.00;;;;;;;24.05;100.00;101602.72;5069821;28;20498;-47
2023/08/18 09:55:11;;;;;;;;;;;;;;;23.87;100.00;101606.56;5071113;28;20450;-46
2023/08/18 09:57:57;;;;;;;0.00;0.00;;;;;;;23.64;100.00;101601.22;5070593;28;19909;-46
2023/08/18 10:00:23;;;;;;;0.00;0.00;;;;;;;23.28;100.00;101588.84;5069132;28;20303;-46
2023/08/18 10:02:52;;;;;;;0.00;0.00;;;;;;;23.16;100.00;101586.16;5069378;28;20075;-48
2023/08/18 10:05:17;;;;;;;0.00;0.00;;;;;;;23.19;100.00;101589.22;5070883;28;20029;-48
2023/08/18 10:07:43;;;;;;;0.00;0.00;;;;;;;23.14;100.00;101585.56;5069572;28;20493;-47
2023/08/18 10:10:09;;;;;;;0.00;0.00;;;;;;;23.08;100.00;101584.66;5069521;28;20039;-46
2023/08/18 10:12:34;;;;;;;0.00;0.00;;;;;;;23.31;100.00;101575.44;5070678;28;20025;-47
2023/08/18 10:15:00;;;;;;;0.00;0.00;;;;;;;23.60;100.00;101575.34;5070103;28;20033;-48
2023/08/18 10:17:26;;;;;;;0.00;0.00;;;;;;;23.56;100.00;101579.69;5069318;28;20021;-45
2023/08/18 10:19:52;;;;;;;0.00;0.00;;;;;;;23.62;100.00;101564.94;5070916;28;20079;-46
2023/08/18 10:22:19;;;;;;;0.00;0.00;;;;;;;24.19;100.00;101555.59;5070855;28;20086;-46
2023/08/18 10:24:46;;;;;;;0.00;0.00;;;;;;;24.40;100.00;101542.91;5071039;28;20021;-45
2023/08/18 10:27:13;;;;;;;0.00;0.00;;;;;;;24.58;100.00;101550.84;5070493;28;20033;-49
2023/08/18 10:29:42;;;;;;;0.00;0.00;;;;;;;24.63;100.00;101545.41;5070655;28;20035;-47
2023/08/18 10:32:08;;;;;;;0.00;0.00;;;;;;;24.92;100.00;101545.13;5070688;28;20052;-44
2023/08/18 10:34:33;;;;;;;0.00;0.00;;;;;;;25.08;100.00;101544.19;5070876;28;20032;-46
2023/08/18 10:36:59;;;;;;;0.00;0.00;;;;;;;25.11;100.00;101545.56;5067996;28;20047;-46
2023/08/18 10:39:32;;;;;;;0.10;0.00;;;;;;;24.86;100.00;101557.22;5070400;28;20029;-46
2023/08/18 10:42:14;;;;;;;0.00;0.00;;;;;;;24.56;100.00;101558.53;5071177;28;20113;-47
2023/08/18 10:44:56;;;;;;;0.00;0.00;;;;;;;24.23;100.00;101548.50;5069076;28;20029;-45
2023/08/18 10:47:30;;;;;;;0.00;0.00;;;;;;;24.07;100.00;101547.47;5068835;28;20036;-47
2023/08/18 10:49:56;;;;;;;0.00;0.00;;;;;;;24.03;100.00;101535.31;5070308;28;20060;-48
2023/08/18 10:52:22;;;;;;;0.00;0.00;;;;;;;24.01;100.00;101537.47;5070543;28;20067;-50
2023/08/18 10:54:47;;;;;;;0.00;0.00;;;;;;;24.19;100.00;101539.06;5070233;28;20033;-49
2023/08/18 10:57:12;;;;;;;0.00;0.00;;;;;;;24.48;100.00;101528.72;5070456;28;20037;-48
2023/08/18 10:59:38;;;;;;;0.00;0.00;;;;;;;24.94;100.00;101523.69;5069973;28;20530;-46
2023/08/18 11:02:03;;;;;;;0.00;0.00;;;;;;;25.52;100.00;101516.44;5070318;28;20032;-46
2023/08/18 11:04:29;;;;;;;0.00;0.00;;;;;;;25.87;100.00;101523.28;5069785;28;20028;-48
2023/08/18 11:06:54;;;;;;;0.00;0.00;;;;;;;25.90;100.00;101517.22;5070112;28;20031;-47
2023/08/18 11:09:19;;;;;;;0.00;0.00;;;;;;;26.18;100.00;101517.91;5070128;28;20584;-45
2023/08/18 11:11:45;;;;;;;0.00;0.00;;;;;;;26.38;100.00;101512.44;5070105;28;20425;-48